KLUK

Cincinnati Municipal Lunken Field Airport

Cincinnati, Ohio, USA
METAR KLUK 190453Z AUTO 00000KT 5SM BR CLR 20/20 A2993 RMK AO2 SLP130 T02000200 403220183
Observed Flight Rules
Sep-19 @ 04:53 UTC (21 minutes ago) Marginal Visual Flight Rules
Visibility Clouds Conditions
5 miles
  • Clear skies
  • Mist
Temperatures Readings
Current 20°C / 68°F
Dewpoint 20°C / 68°F
Humidity 100%
Altimeter 29.93" Hg
Pressure 1013 hPa
Elevation 155
METAR KLUK 190453Z AUTO 00000KT 5SM BR CLR 20/20 A2993 RMK AO2 SLP130 T02000200 403220183
Observed Flight Rules
Sep-19 @ 04:53 UTC
(21 minutes ago)
MVFR
Clouds
  • Clear skies
Conditions
  • Mist
Temperature Dewpoint
20°C / 68°F 20°C / 68°F
Humidity Altimeter Pressure
100% 29.93" Hg 1013 hPa